Durham, NC

11:35 AM EDT on August 30, 2016 (GMT -0400)
| | Change Station

Elev -9999 ft 0.00 °N, 0.00 °E | Updated

Clear
Clear
89 °F
Feels Like 91 °F
N
7
Wind Variable Wind from NE
Gusts mph

Today
High -- | Low -- °F
--% Chance of Precip.
Yesterday
High -- | Low -- °F
Precip. -- in
Pressure 30.13 in
Visibility 10.0 miles
Clouds Scattered Clouds 3600 ft
Mostly Cloudy 25000 ft
Heat Index 91 °F
Dew Point 65 °F
Humidity 46%
Rainfall --
Snow Depth Not available.
6:46 AM 7:45 PM
Waning Crescent, 3% visible
METAR KRDU 301451Z 08008KT 10SM SCT036 BKN250 29/18 A3014 RMK AO2 SLP202 T02890178 53006
Pressure 30.13 in
Visibility 10.0 miles
Clouds Scattered Clouds 3600 ft
Mostly Cloudy 25000 ft
Heat Index 91 °F
Dew Point 65 °F
Humidity 46%
Rainfall --
Snow Depth Not available.
6:46 AM 7:45 PM
Waning Crescent, 3% visible
METAR KRDU 301451Z 08008KT 10SM SCT036 BKN250 29/18 A3014 RMK AO2 SLP202 T02890178 53006

10-Day Weather Forecast

Almanac

Astronomy

Aug. 30, 2016 Rise Set
Actual Time
Civil Twilight
Nautical Twilight
Astronomical Twilight
Moon
Length of Visible Light
Length of Day
Tomorrow will be .
, % of the Moon is Illuminated

Today's Extremes

State Highs State Lows

Community

WunderPhotos

Upload Photos

1,935,852 photos uploaded!

WunderBlog® & News

Nearby

Air Quality

  Air Quality AQ Index Pollutant
Not available.

Snow Depth

Station Depth Elevation

Earthquake Activity

City Distance Mag. Time & Date
Minimum magnitude displayed is 2.5.

Coastal Water Temperatures

Place Temperature

Stations

Nearby Weather Stations

Station Location Temp. Windchill Dew Point Humidity Wind Precip. Elev Updated Type
                   

Watches & Warnings

There are currently no watches in effect.